Legend Of The Seas — C6SL5 — position and weather

sailwx.info

Track history (hours):
 
Tides and Currents Weather Stations Pressure Air Temp Water Temp Dewpoint Dewpoint Depression Visibility Wind Speed Wind Dir Waves Ship Positions

Legend Of The Seas

Operator: Royal Caribbean Cruises Ltd

Last reported at 2019-Mar-18 02:13 UTC. Time now 2019-Mar-22 12:43 UTC.
Position N 20°41' W 086°50'.

Type: Passenger vessel. MMSI: 311378000.

Date/timePositionNaut miles runAvg speedWind from/ knotsBaromVisibWave heightAir tempDewpointWater temp
2019-Mar-18 02:13N 20°41' W 086°50'418.4
2019-Mar-18 02:00N 20°38' W 086°53'815.8
2019-Mar-18 01:31N 20°31' W 086°57'1 1.5
2019-Mar-18 00:58N 20°31' W 086°57'0 0.0
2019-Mar-18 00:25N 20°31' W 086°57'0 0.0
2019-Mar-17 23:58N 20°31' W 086°57'0 0.0
2019-Mar-17 23:28N 20°31' W 086°57'0 0.0
2019-Mar-17 22:58N 20°31' W 086°57'0 0.0
2019-Mar-17 22:28N 20°31' W 086°57'0 0.0
2019-Mar-17 21:58N 20°31' W 086°57'0 0.0
2019-Mar-17 21:28N 20°31' W 086°57'0 0.0
2019-Mar-17 20:58N 20°31' W 086°57'0 0.0
2019-Mar-17 20:28N 20°31' W 086°57'0 0.0
2019-Mar-17 19:58N 20°31' W 086°57'0 0.0
2019-Mar-17 19:28N 20°31' W 086°57'0 0.0
2019-Mar-17 18:55N 20°31' W 086°57'0 0.0
2019-Mar-17 18:28N 20°31' W 086°57'0 0.0
2019-Mar-17 17:58N 20°31' W 086°57'0 0.0
2019-Mar-17 17:28N 20°31' W 086°57'0 0.0
2019-Mar-17 16:58N 20°31' W 086°57'0 0.0
2019-Mar-17 16:28N 20°31' W 086°57'0 0.0
2019-Mar-17 15:58N 20°31' W 086°57'0 0.0
2019-Mar-17 15:28N 20°31' W 086°57'0 0.0
2019-Mar-17 14:58N 20°31' W 086°57'0 0.0
2019-Mar-17 14:28N 20°31' W 086°57'0 0.0
2019-Mar-17 13:58N 20°31' W 086°57'0 0.0
2019-Mar-17 13:28N 20°31' W 086°57'0 0.0
2019-Mar-17 12:58N 20°31' W 086°57'0 0.5
2019-Mar-17 12:30N 20°31' W 086°57'4 8.1
2019-Mar-17 12:00N 20°35' W 086°57'  
2019-Mar-10 02:50N 10°38' W 075°42'411.3
2019-Mar-10 02:30N 10°34' W 075°42'611.0
2019-Mar-10 01:59N 10°28' W 075°43'510.5
2019-Mar-10 01:30N 10°23' W 075°44'510.9
2019-Mar-10 01:00N 10°20' W 075°39'510.8
2019-Mar-10 00:30N 10°19' W 075°34'5 9.8
2019-Mar-09 23:59N 10°24' W 075°33'1 1.7
2019-Mar-09 23:28N 10°24' W 075°32'0 0.0
2019-Mar-09 22:58N 10°24' W 075°32'0 0.0
2019-Mar-09 22:28N 10°24' W 075°32'0 0.0
2019-Mar-09 21:58N 10°24' W 075°32'0 0.0
2019-Mar-09 21:28N 10°24' W 075°32'0 0.0
2019-Mar-09 20:58N 10°24' W 075°32'0 0.0
2019-Mar-09 20:28N 10°24' W 075°32'0 0.0
2019-Mar-09 19:46N 10°24' W 075°32'0 0.0
2019-Mar-09 19:28N 10°24' W 075°32'0 0.0
2019-Mar-09 18:46N 10°24' W 075°32'0 0.0
2019-Mar-09 18:28N 10°24' W 075°32'0 0.0
2019-Mar-09 17:58N 10°24' W 075°32'0 0.0
2019-Mar-09 17:28N 10°24' W 075°32'0 0.0
2019-Mar-09 16:58N 10°24' W 075°32'0 0.0
2019-Mar-09 16:28N 10°24' W 075°32'0 0.0
2019-Mar-09 15:58N 10°24' W 075°32'0 0.0
2019-Mar-09 15:28N 10°24' W 075°32'0 0.0
2019-Mar-09 14:58N 10°24' W 075°32'0 0.8
2019-Mar-09 14:30N 10°24' W 075°32'5 9.7
2019-Mar-09 14:00N 10°19' W 075°34'511.0
2019-Mar-09 13:30N 10°18' W 075°39'713.0
2019-Mar-09 12:59N 10°17' W 075°46'612.5
2019-Mar-09 12:29N 10°17' W 075°52'23517.8
2019-Mar-08 23:14N 09°35' W 079°47'418.4
2019-Mar-08 23:00N 09°32' W 079°50'816.5
2019-Mar-08 22:30N 09°24' W 079°54'3 5.7
2019-Mar-08 21:59N 09°22' W 079°53'0 0.0
2019-Mar-08 21:29N 09°22' W 079°53'0 0.0
2019-Mar-08 20:59N 09°22' W 079°53'0 0.0
2019-Mar-08 20:29N 09°22' W 079°53'0 0.0
2019-Mar-08 19:59N 09°22' W 079°53'0 0.0
2019-Mar-08 19:29N 09°22' W 079°53'0 0.0
2019-Mar-08 18:59N 09°22' W 079°53'0 0.0
2019-Mar-08 18:29N 09°22' W 079°53'0 0.0
2019-Mar-08 17:59N 09°22' W 079°53'0 0.0
2019-Mar-08 17:29N 09°22' W 079°53'0 0.0
2019-Mar-08 16:59N 09°22' W 079°53'0 0.0
2019-Mar-08 16:29N 09°22' W 079°53'0 0.0
2019-Mar-08 15:59N 09°22' W 079°53'0 0.0
2019-Mar-08 15:29N 09°22' W 079°53'0 0.0
2019-Mar-08 14:59N 09°22' W 079°53'0 0.0
2019-Mar-08 14:29N 09°22' W 079°53'0 0.0
2019-Mar-08 13:59N 09°22' W 079°53'0 0.0
2019-Mar-08 13:29N 09°22' W 079°53'0 0.0
2019-Mar-08 12:59N 09°22' W 079°53'0 0.0
2019-Mar-08 12:29N 09°22' W 079°53'0 0.0
2019-Mar-08 11:59N 09°22' W 079°53'0 0.0
2019-Mar-08 11:29N 09°22' W 079°53'0 0.3
2019-Mar-08 11:01N 09°22' W 079°53'3 6.0
2019-Mar-08 10:30N 09°25' W 079°54'3 6.3
2019-Mar-08 10:00N 09°28' W 079°55'713.5
2019-Mar-08 09:30N 09°30' W 080°01'  
Track history (hours):
 
Tides and Currents Weather Stations Pressure Air Temp Water Temp Dewpoint Dewpoint Depression Visibility Wind Speed Wind Dir Waves Ship Positions

Legend Of The Seas

Operator: Royal Caribbean Cruises Ltd

Last reported at 2019-Mar-18 02:13 UTC. Time now 2019-Mar-22 12:43 UTC.
Position N 20°41' W 086°50'.

Type: Passenger vessel. MMSI: 311378000.

Date/timePositionNaut miles runAvg speedWind from/ knotsBaromVisibWave heightAir tempDewpointWater temp
2019-Mar-18 02:13N 20°41' W 086°50'418.4
2019-Mar-18 02:00N 20°38' W 086°53'815.8
2019-Mar-18 01:31N 20°31' W 086°57'1 1.5
2019-Mar-18 00:58N 20°31' W 086°57'0 0.0
2019-Mar-18 00:25N 20°31' W 086°57'0 0.0
2019-Mar-17 23:58N 20°31' W 086°57'0 0.0
2019-Mar-17 23:28N 20°31' W 086°57'0 0.0
2019-Mar-17 22:58N 20°31' W 086°57'0 0.0
2019-Mar-17 22:28N 20°31' W 086°57'0 0.0
2019-Mar-17 21:58N 20°31' W 086°57'0 0.0
2019-Mar-17 21:28N 20°31' W 086°57'0 0.0
2019-Mar-17 20:58N 20°31' W 086°57'0 0.0
2019-Mar-17 20:28N 20°31' W 086°57'0 0.0
2019-Mar-17 19:58N 20°31' W 086°57'0 0.0
2019-Mar-17 19:28N 20°31' W 086°57'0 0.0
2019-Mar-17 18:55N 20°31' W 086°57'0 0.0
2019-Mar-17 18:28N 20°31' W 086°57'0 0.0
2019-Mar-17 17:58N 20°31' W 086°57'0 0.0
2019-Mar-17 17:28N 20°31' W 086°57'0 0.0
2019-Mar-17 16:58N 20°31' W 086°57'0 0.0
2019-Mar-17 16:28N 20°31' W 086°57'0 0.0
2019-Mar-17 15:58N 20°31' W 086°57'0 0.0
2019-Mar-17 15:28N 20°31' W 086°57'0 0.0
2019-Mar-17 14:58N 20°31' W 086°57'0 0.0
2019-Mar-17 14:28N 20°31' W 086°57'0 0.0
2019-Mar-17 13:58N 20°31' W 086°57'0 0.0
2019-Mar-17 13:28N 20°31' W 086°57'0 0.0
2019-Mar-17 12:58N 20°31' W 086°57'0 0.5
2019-Mar-17 12:30N 20°31' W 086°57'4 8.1
2019-Mar-17 12:00N 20°35' W 086°57'  
2019-Mar-10 02:50N 10°38' W 075°42'411.3
2019-Mar-10 02:30N 10°34' W 075°42'611.0
2019-Mar-10 01:59N 10°28' W 075°43'510.5
2019-Mar-10 01:30N 10°23' W 075°44'510.9
2019-Mar-10 01:00N 10°20' W 075°39'510.8
2019-Mar-10 00:30N 10°19' W 075°34'5 9.8
2019-Mar-09 23:59N 10°24' W 075°33'1 1.7
2019-Mar-09 23:28N 10°24' W 075°32'0 0.0
2019-Mar-09 22:58N 10°24' W 075°32'0 0.0
2019-Mar-09 22:28N 10°24' W 075°32'0 0.0
2019-Mar-09 21:58N 10°24' W 075°32'0 0.0
2019-Mar-09 21:28N 10°24' W 075°32'0 0.0
2019-Mar-09 20:58N 10°24' W 075°32'0 0.0
2019-Mar-09 20:28N 10°24' W 075°32'0 0.0
2019-Mar-09 19:46N 10°24' W 075°32'0 0.0
2019-Mar-09 19:28N 10°24' W 075°32'0 0.0
2019-Mar-09 18:46N 10°24' W 075°32'0 0.0
2019-Mar-09 18:28N 10°24' W 075°32'0 0.0
2019-Mar-09 17:58N 10°24' W 075°32'0 0.0
2019-Mar-09 17:28N 10°24' W 075°32'0 0.0
2019-Mar-09 16:58N 10°24' W 075°32'0 0.0
2019-Mar-09 16:28N 10°24' W 075°32'0 0.0
2019-Mar-09 15:58N 10°24' W 075°32'0 0.0
2019-Mar-09 15:28N 10°24' W 075°32'0 0.0
2019-Mar-09 14:58N 10°24' W 075°32'0 0.8
2019-Mar-09 14:30N 10°24' W 075°32'5 9.7
2019-Mar-09 14:00N 10°19' W 075°34'511.0
2019-Mar-09 13:30N 10°18' W 075°39'713.0
2019-Mar-09 12:59N 10°17' W 075°46'612.5
2019-Mar-09 12:29N 10°17' W 075°52'23517.8
2019-Mar-08 23:14N 09°35' W 079°47'418.4
2019-Mar-08 23:00N 09°32' W 079°50'816.5
2019-Mar-08 22:30N 09°24' W 079°54'3 5.7
2019-Mar-08 21:59N 09°22' W 079°53'0 0.0
2019-Mar-08 21:29N 09°22' W 079°53'0 0.0
2019-Mar-08 20:59N 09°22' W 079°53'0 0.0
2019-Mar-08 20:29N 09°22' W 079°53'0 0.0
2019-Mar-08 19:59N 09°22' W 079°53'0 0.0
2019-Mar-08 19:29N 09°22' W 079°53'0 0.0
2019-Mar-08 18:59N 09°22' W 079°53'0 0.0
2019-Mar-08 18:29N 09°22' W 079°53'0 0.0
2019-Mar-08 17:59N 09°22' W 079°53'0 0.0
2019-Mar-08 17:29N 09°22' W 079°53'0 0.0
2019-Mar-08 16:59N 09°22' W 079°53'0 0.0
2019-Mar-08 16:29N 09°22' W 079°53'0 0.0
2019-Mar-08 15:59N 09°22' W 079°53'0 0.0
2019-Mar-08 15:29N 09°22' W 079°53'0 0.0
2019-Mar-08 14:59N 09°22' W 079°53'0 0.0
2019-Mar-08 14:29N 09°22' W 079°53'0 0.0
2019-Mar-08 13:59N 09°22' W 079°53'0 0.0
2019-Mar-08 13:29N 09°22' W 079°53'0 0.0
2019-Mar-08 12:59N 09°22' W 079°53'0 0.0
2019-Mar-08 12:29N 09°22' W 079°53'0 0.0
2019-Mar-08 11:59N 09°22' W 079°53'0 0.0
2019-Mar-08 11:29N 09°22' W 079°53'0 0.3
2019-Mar-08 11:01N 09°22' W 079°53'3 6.0
2019-Mar-08 10:30N 09°25' W 079°54'3 6.3
2019-Mar-08 10:00N 09°28' W 079°55'713.5
2019-Mar-08 09:30N 09°30' W 080°01'  

Dump ship's entire track history